Briggsdale, Colorado
Current Conditions -  °F | °C
As of 2:55 PM on Monday 20 Oct 2014 (Local Time) from KGXY Reporting Station
Clear Clear  
Wind Chill: 79°   Ceiling: Unl
Heat Index: 79°   Visibility: 10mi
Dew Point: 37°   Wind: 8mph
Humidity: 23%   Direction: 220°SW
Pressure: 30.04"   Gusts: NA
Location:  40.63°N, 104.33°W
Report Text: KGXY 202055Z AUTO 22007KT 10SM CLR 26/03 A3004 RMK AO1 57037
Loading
Personal Weather Stations






























Interactive Weather Map
Tropical Storm Tracking
New forecast layout! Learn more

10-Day Weather Forecast

Advertisements
Track Severe Weather on mobile